sensor_id;sensor_type;location;lat;lon;timestamp;temperature;humidity
21805;DHT22;11064;47.102;15.452;2022-09-16T04:01:11;15.70;99.90
21805;DHT22;11064;47.102;15.452;2022-09-16T04:03:37;15.60;99.90
21805;DHT22;11064;47.102;15.452;2022-09-16T04:06:03;15.50;99.90
21805;DHT22;11064;47.102;15.452;2022-09-16T04:08:29;15.40;99.90
21805;DHT22;11064;47.102;15.452;2022-09-16T04:10:58;15.30;99.90
21805;DHT22;11064;47.102;15.452;2022-09-16T04:13:24;15.30;99.90
21805;DHT22;11064;47.102;15.452;2022-09-16T04:15:51;15.30;99.90
21805;DHT22;11064;47.102;15.452;2022-09-16T04:18:17;15.30;99.90
21805;DHT22;11064;47.102;15.452;2022-09-16T04:20:43;15.30;99.90
21805;DHT22;11064;47.102;15.452;2022-09-16T04:23:09;15.30;99.90
21805;DHT22;11064;47.102;15.452;2022-09-16T04:25:35;15.30;99.90
21805;DHT22;11064;47.102;15.452;2022-09-16T04:28:01;15.30;99.90
21805;DHT22;11064;47.102;15.452;2022-09-16T04:30:27;15.20;99.90
21805;DHT22;11064;47.102;15.452;2022-09-16T04:32:56;15.20;99.90
21805;DHT22;11064;47.102;15.452;2022-09-16T04:35:23;15.20;99.90
21805;DHT22;11064;47.102;15.452;2022-09-16T04:37:50;15.20;99.90
21805;DHT22;11064;47.102;15.452;2022-09-16T04:40:17;15.20;99.90
21805;DHT22;11064;47.102;15.452;2022-09-16T04:42:49;15.10;99.90
21805;DHT22;11064;47.102;15.452;2022-09-16T04:45:15;15.10;99.90
21805;DHT22;11064;47.102;15.452;2022-09-16T04:47:41;15.00;99.90
21805;DHT22;11064;47.102;15.452;2022-09-16T04:50:07;14.90;99.90
21805;DHT22;11064;47.102;15.452;2022-09-16T04:52:33;14.80;99.90
21805;DHT22;11064;47.102;15.452;2022-09-16T04:54:59;14.70;99.90
21805;DHT22;11064;47.102;15.452;2022-09-16T04:57:24;14.70;99.90
21805;DHT22;11064;47.102;15.452;2022-09-16T04:59:50;14.70;99.90
21805;DHT22;11064;47.102;15.452;2022-09-16T05:02:16;14.60;99.90
21805;DHT22;11064;47.102;15.452;2022-09-16T05:04:41;14.60;99.90
21805;DHT22;11064;47.102;15.452;2022-09-16T05:07:07;14.60;99.90
21805;DHT22;11064;47.102;15.452;2022-09-16T05:09:33;14.60;99.90
21805;DHT22;11064;47.102;15.452;2022-09-16T05:11:59;14.60;99.90
21805;DHT22;11064;47.102;15.452;2022-09-16T05:14:26;14.60;99.90
21805;DHT22;11064;47.102;15.452;2022-09-16T05:16:52;14.50;99.90
21805;DHT22;11064;47.102;15.452;2022-09-16T05:19:18;14.50;99.90
21805;DHT22;11064;47.102;15.452;2022-09-16T05:21:44;14.40;99.90
21805;DHT22;11064;47.102;15.452;2022-09-16T05:24:12;14.40;99.90
21805;DHT22;11064;47.102;15.452;2022-09-16T05:26:39;14.40;99.90
21805;DHT22;11064;47.102;15.452;2022-09-16T05:29:12;14.40;99.90
21805;DHT22;11064;47.102;15.452;2022-09-16T05:31:41;14.40;99.90
21805;DHT22;11064;47.102;15.452;2022-09-16T05:34:14;14.40;99.90
21805;DHT22;11064;47.102;15.452;2022-09-16T05:36:42;14.40;99.90
21805;DHT22;11064;47.102;15.452;2022-09-16T05:39:09;14.40;99.90
21805;DHT22;11064;47.102;15.452;2022-09-16T05:41:37;14.40;99.90
21805;DHT22;11064;47.102;15.452;2022-09-16T05:44:03;14.40;99.90
21805;DHT22;11064;47.102;15.452;2022-09-16T05:46:28;14.40;99.90
21805;DHT22;11064;47.102;15.452;2022-09-16T05:48:55;14.50;99.90
21805;DHT22;11064;47.102;15.452;2022-09-16T05:51:22;14.50;99.90
21805;DHT22;11064;47.102;15.452;2022-09-16T05:53:50;14.50;99.90
21805;DHT22;11064;47.102;15.452;2022-09-16T05:56:18;14.50;99.90
21805;DHT22;11064;47.102;15.452;2022-09-16T05:58:45;14.50;99.90
21805;DHT22;11064;47.102;15.452;2022-09-16T06:01:14;14.60;99.90
21805;DHT22;11064;47.102;15.452;2022-09-16T06:03:41;14.50;99.90
21805;DHT22;11064;47.102;15.452;2022-09-16T06:06:25;14.60;99.90
21805;DHT22;11064;47.102;15.452;2022-09-16T06:08:54;14.70;99.90
21805;DHT22;11064;47.102;15.452;2022-09-16T06:11:20;14.70;99.90
21805;DHT22;11064;47.102;15.452;2022-09-16T06:13:46;14.70;99.90
21805;DHT22;11064;47.102;15.452;2022-09-16T06:16:12;14.70;99.90
21805;DHT22;11064;47.102;15.452;2022-09-16T06:18:40;14.70;99.90
21805;DHT22;11064;47.102;15.452;2022-09-16T06:21:10;14.70;99.90
21805;DHT22;11064;47.102;15.452;2022-09-16T06:23:37;14.70;99.90
21805;DHT22;11064;47.102;15.452;2022-09-16T06:26:08;14.70;99.90
21805;DHT22;11064;47.102;15.452;2022-09-16T06:28:36;14.70;99.90
21805;DHT22;11064;47.102;15.452;2022-09-16T06:31:09;14.70;99.90
21805;DHT22;11064;47.102;15.452;2022-09-16T06:33:36;14.70;99.90
21805;DHT22;11064;47.102;15.452;2022-09-16T06:36:11;14.70;99.90
21805;DHT22;11064;47.102;15.452;2022-09-16T06:38:38;14.70;99.90
21805;DHT22;11064;47.102;15.452;2022-09-16T06:41:05;14.90;99.90
21805;DHT22;11064;47.102;15.452;2022-09-16T06:43:32;14.90;99.90
21805;DHT22;11064;47.102;15.452;2022-09-16T06:46:06;15.00;99.90
21805;DHT22;11064;47.102;15.452;2022-09-16T06:48:34;15.00;99.90
21805;DHT22;11064;47.102;15.452;2022-09-16T06:51:04;14.90;99.90
21805;DHT22;11064;47.102;15.452;2022-09-16T06:53:31;14.90;99.90
21805;DHT22;11064;47.102;15.452;2022-09-16T06:56:06;14.80;99.90
21805;DHT22;11064;47.102;15.452;2022-09-16T06:58:33;14.80;99.90
21805;DHT22;11064;47.102;15.452;2022-09-16T07:01:04;14.80;99.90
21805;DHT22;11064;47.102;15.452;2022-09-16T07:03:30;14.80;99.90
21805;DHT22;11064;47.102;15.452;2022-09-16T07:05:57;14.70;99.90
21805;DHT22;11064;47.102;15.452;2022-09-16T07:08:24;14.70;99.90
21805;DHT22;11064;47.102;15.452;2022-09-16T07:11:00;14.70;99.90
21805;DHT22;11064;47.102;15.452;2022-09-16T07:13:27;14.70;99.90
21805;DHT22;11064;47.102;15.452;2022-09-16T07:15:53;14.80;99.90
21805;DHT22;11064;47.102;15.452;2022-09-16T07:18:19;14.80;99.90
21805;DHT22;11064;47.102;15.452;2022-09-16T07:20:46;14.80;99.90
21805;DHT22;11064;47.102;15.452;2022-09-16T07:23:11;14.80;99.90
21805;DHT22;11064;47.102;15.452;2022-09-16T07:25:37;14.70;99.90
21805;DHT22;11064;47.102;15.452;2022-09-16T07:28:03;14.80;99.90
21805;DHT22;11064;47.102;15.452;2022-09-16T07:30:29;14.80;99.90
21805;DHT22;11064;47.102;15.452;2022-09-16T07:32:56;14.80;99.90
21805;DHT22;11064;47.102;15.452;2022-09-16T07:35:22;14.90;99.90
21805;DHT22;11064;47.102;15.452;2022-09-16T07:37:48;14.90;99.90
21805;DHT22;11064;47.102;15.452;2022-09-16T07:40:13;14.80;99.90
21805;DHT22;11064;47.102;15.452;2022-09-16T07:42:39;14.80;99.90
21805;DHT22;11064;47.102;15.452;2022-09-16T07:45:07;14.80;99.90
21805;DHT22;11064;47.102;15.452;2022-09-16T07:47:33;14.80;99.90
21805;DHT22;11064;47.102;15.452;2022-09-16T07:50:00;14.70;99.90
21805;DHT22;11064;47.102;15.452;2022-09-16T07:52:26;14.80;99.90
21805;DHT22;11064;47.102;15.452;2022-09-16T07:54:56;14.80;99.90
21805;DHT22;11064;47.102;15.452;2022-09-16T07:57:22;14.80;99.90
21805;DHT22;11064;47.102;15.452;2022-09-16T07:59:49;14.80;99.90
21805;DHT22;11064;47.102;15.452;2022-09-16T08:02:15;14.90;99.90
21805;DHT22;11064;47.102;15.452;2022-09-16T08:04:41;14.90;99.90
21805;DHT22;11064;47.102;15.452;2022-09-16T08:07:08;14.90;99.90
21805;DHT22;11064;47.102;15.452;2022-09-16T08:09:34;14.90;99.90
21805;DHT22;11064;47.102;15.452;2022-09-16T08:12:02;15.00;99.90
21805;DHT22;11064;47.102;15.452;2022-09-16T08:14:29;14.90;99.90
21805;DHT22;11064;47.102;15.452;2022-09-16T08:16:55;14.90;99.90
21805;DHT22;11064;47.102;15.452;2022-09-16T08:19:20;14.90;99.90
21805;DHT22;11064;47.102;15.452;2022-09-16T08:21:48;15.00;99.90
21805;DHT22;11064;47.102;15.452;2022-09-16T08:24:14;15.10;99.90
21805;DHT22;11064;47.102;15.452;2022-09-16T08:26:41;15.10;99.90
21805;DHT22;11064;47.102;15.452;2022-09-16T08:29:07;15.00;99.90
21805;DHT22;11064;47.102;15.452;2022-09-16T08:31:32;15.00;99.90
21805;DHT22;11064;47.102;15.452;2022-09-16T08:33:58;15.00;99.90
21805;DHT22;11064;47.102;15.452;2022-09-16T08:36:25;15.00;99.90
21805;DHT22;11064;47.102;15.452;2022-09-16T08:38:53;15.00;99.90
21805;DHT22;11064;47.102;15.452;2022-09-16T08:47:02;14.80;99.90
21805;DHT22;11064;47.102;15.452;2022-09-16T08:49:45;14.70;99.90
21805;DHT22;11064;47.102;15.452;2022-09-16T08:52:30;14.70;99.90
21805;DHT22;11064;47.102;15.452;2022-09-16T08:55:05;14.70;99.90
21805;DHT22;11064;47.102;15.452;2022-09-16T08:57:37;14.70;99.90
21805;DHT22;11064;47.102;15.452;2022-09-16T09:00:11;14.70;99.90
21805;DHT22;11064;47.102;15.452;2022-09-16T09:02:54;14.60;99.90
21805;DHT22;11064;47.102;15.452;2022-09-16T09:08:00;14.70;99.90
21805;DHT22;11064;47.102;15.452;2022-09-16T09:11:35;14.80;99.90
21805;DHT22;11064;47.102;15.452;2022-09-16T09:14:20;14.80;99.90
21805;DHT22;11064;47.102;15.452;2022-09-16T09:28:10;14.70;99.90
21805;DHT22;11064;47.102;15.452;2022-09-16T09:30:49;14.60;99.90
21805;DHT22;11064;47.102;15.452;2022-09-16T09:33:59;14.70;99.90
21805;DHT22;11064;47.102;15.452;2022-09-16T09:41:38;14.60;99.90
21805;DHT22;11064;47.102;15.452;2022-09-16T09:44:37;14.80;99.90
21805;DHT22;11064;47.102;15.452;2022-09-16T09:47:13;14.90;99.90
21805;DHT22;11064;47.102;15.452;2022-09-16T09:49:48;14.80;99.90
21805;DHT22;11064;47.102;15.452;2022-09-16T09:52:35;14.80;99.90
21805;DHT22;11064;47.102;15.452;2022-09-16T09:55:20;14.70;99.90
21805;DHT22;11064;47.102;15.452;2022-09-16T10:00:25;14.50;99.90
21805;DHT22;11064;47.102;15.452;2022-09-16T10:02:50;14.40;99.90
21805;DHT22;11064;47.102;15.452;2022-09-16T10:05:26;14.30;99.90
21805;DHT22;11064;47.102;15.452;2022-09-16T10:07:55;14.20;99.90
21805;DHT22;11064;47.102;15.452;2022-09-16T10:10:24;13.90;99.90
21805;DHT22;11064;47.102;15.452;2022-09-16T10:12:51;13.80;99.90
21805;DHT22;11064;47.102;15.452;2022-09-16T10:15:28;13.70;99.90
21805;DHT22;11064;47.102;15.452;2022-09-16T10:17:57;13.60;99.90
21805;DHT22;11064;47.102;15.452;2022-09-16T10:20:34;13.60;99.90
21805;DHT22;11064;47.102;15.452;2022-09-16T10:23:04;13.60;99.90
21805;DHT22;11064;47.102;15.452;2022-09-16T10:25:31;13.60;99.90
21805;DHT22;11064;47.102;15.452;2022-09-16T10:27:59;13.60;99.90
21805;DHT22;11064;47.102;15.452;2022-09-16T10:30:27;13.50;99.90
21805;DHT22;11064;47.102;15.452;2022-09-16T10:35:25;13.60;99.90
21805;DHT22;11064;47.102;15.452;2022-09-16T10:37:54;13.80;99.90
21805;DHT22;11064;47.102;15.452;2022-09-16T10:40:21;13.90;99.90
21805;DHT22;11064;47.102;15.452;2022-09-16T10:42:50;13.90;99.90
21805;DHT22;11064;47.102;15.452;2022-09-16T10:45:32;13.90;99.90
21805;DHT22;11064;47.102;15.452;2022-09-16T10:48:02;14.00;99.90
21805;DHT22;11064;47.102;15.452;2022-09-16T10:50:29;13.90;99.90
21805;DHT22;11064;47.102;15.452;2022-09-16T10:52:55;13.90;99.90
21805;DHT22;11064;47.102;15.452;2022-09-16T10:55:32;14.00;99.90
21805;DHT22;11064;47.102;15.452;2022-09-16T10:58:16;14.10;99.90
21805;DHT22;11064;47.102;15.452;2022-09-16T11:12:28;15.30;99.90
21805;DHT22;11064;47.102;15.452;2022-09-16T11:17:34;15.70;99.90
21805;DHT22;11064;47.102;15.452;2022-09-16T11:20:09;15.90;99.90
21805;DHT22;11064;47.102;15.452;2022-09-16T11:25:39;16.30;99.90
21805;DHT22;11064;47.102;15.452;2022-09-16T11:36:53;16.80;99.90
21805;DHT22;11064;47.102;15.452;2022-09-16T11:42:05;16.90;99.90
21805;DHT22;11064;47.102;15.452;2022-09-16T11:56:32;16.10;99.90
21805;DHT22;11064;47.102;15.452;2022-09-16T11:58:52;15.90;99.90
21805;DHT22;11064;47.102;15.452;2022-09-16T12:01:42;15.70;99.90
21805;DHT22;11064;47.102;15.452;2022-09-16T12:04:24;15.70;99.90
21805;DHT22;11064;47.102;15.452;2022-09-16T12:06:59;15.40;99.90
21805;DHT22;11064;47.102;15.452;2022-09-16T12:12:18;14.60;99.90
21805;DHT22;11064;47.102;15.452;2022-09-16T12:15:02;14.40;99.90
21805;DHT22;11064;47.102;15.452;2022-09-16T12:17:34;14.40;99.90
21805;DHT22;11064;47.102;15.452;2022-09-16T12:20:37;14.30;99.90
21805;DHT22;11064;47.102;15.452;2022-09-16T12:23:21;14.20;99.90
21805;DHT22;11064;47.102;15.452;2022-09-16T12:26:09;14.20;99.90
21805;DHT22;11064;47.102;15.452;2022-09-16T12:28:44;14.10;99.90
21805;DHT22;11064;47.102;15.452;2022-09-16T12:34:16;14.30;99.90
21805;DHT22;11064;47.102;15.452;2022-09-16T12:36:47;14.30;99.90
21805;DHT22;11064;47.102;15.452;2022-09-16T12:39:14;14.30;99.90
21805;DHT22;11064;47.102;15.452;2022-09-16T12:47:12;14.50;99.90
21805;DHT22;11064;47.102;15.452;2022-09-16T13:01:17;15.50;99.90
21805;DHT22;11064;47.102;15.452;2022-09-16T13:03:48;15.70;99.90
21805;DHT22;11064;47.102;15.452;2022-09-16T13:06:27;15.80;99.90
21805;DHT22;11064;47.102;15.452;2022-09-16T13:08:54;16.20;99.90
21805;DHT22;11064;47.102;15.452;2022-09-16T13:11:23;16.20;99.90
21805;DHT22;11064;47.102;15.452;2022-09-16T13:13:55;16.10;99.90
21805;DHT22;11064;47.102;15.452;2022-09-16T13:16:32;15.80;99.90
21805;DHT22;11064;47.102;15.452;2022-09-16T13:19:16;15.50;99.90
21805;DHT22;11064;47.102;15.452;2022-09-16T13:21:44;15.20;99.90
21805;DHT22;11064;47.102;15.452;2022-09-16T13:26:41;14.70;99.90
21805;DHT22;11064;47.102;15.452;2022-09-16T13:32:02;14.30;99.90
21805;DHT22;11064;47.102;15.452;2022-09-16T13:34:28;14.20;99.90
21805;DHT22;11064;47.102;15.452;2022-09-16T13:36:54;14.10;99.90
21805;DHT22;11064;47.102;15.452;2022-09-16T13:39:32;14.00;99.90
21805;DHT22;11064;47.102;15.452;2022-09-16T13:42:16;13.90;99.90
21805;DHT22;11064;47.102;15.452;2022-09-16T13:44:42;13.90;99.90
21805;DHT22;11064;47.102;15.452;2022-09-16T13:49:39;13.80;99.90
21805;DHT22;11064;47.102;15.452;2022-09-16T13:52:10;13.70;99.90
21805;DHT22;11064;47.102;15.452;2022-09-16T13:54:56;13.60;99.90
21805;DHT22;11064;47.102;15.452;2022-09-16T14:09:39;14.00;99.90
21805;DHT22;11064;47.102;15.452;2022-09-16T14:12:11;14.00;99.90
21805;DHT22;11064;47.102;15.452;2022-09-16T14:14:39;14.00;99.90
21805;DHT22;11064;47.102;15.452;2022-09-16T14:17:15;13.90;99.90
21805;DHT22;11064;47.102;15.452;2022-09-16T14:19:44;13.80;99.90
21805;DHT22;11064;47.102;15.452;2022-09-16T14:22:17;13.80;99.90
21805;DHT22;11064;47.102;15.452;2022-09-16T14:24:44;13.80;99.90
21805;DHT22;11064;47.102;15.452;2022-09-16T14:27:27;13.80;99.90
21805;DHT22;11064;47.102;15.452;2022-09-16T14:29:59;13.80;99.90
21805;DHT22;11064;47.102;15.452;2022-09-16T14:32:33;13.90;99.90
21805;DHT22;11064;47.102;15.452;2022-09-16T14:35:07;14.00;99.90
21805;DHT22;11064;47.102;15.452;2022-09-16T14:37:34;14.00;99.90
21805;DHT22;11064;47.102;15.452;2022-09-16T14:40:13;14.00;99.90
21805;DHT22;11064;47.102;15.452;2022-09-16T14:43:03;13.90;99.90
21805;DHT22;11064;47.102;15.452;2022-09-16T14:45:30;13.90;99.90
21805;DHT22;11064;47.102;15.452;2022-09-16T14:47:59;13.90;99.90
21805;DHT22;11064;47.102;15.452;2022-09-16T14:50:46;13.80;99.90
21805;DHT22;11064;47.102;15.452;2022-09-16T14:53:33;13.70;99.90
21805;DHT22;11064;47.102;15.452;2022-09-16T14:56:03;13.70;99.90
21805;DHT22;11064;47.102;15.452;2022-09-16T14:58:31;13.80;99.90
21805;DHT22;11064;47.102;15.452;2022-09-16T15:01:05;13.80;99.90
21805;DHT22;11064;47.102;15.452;2022-09-16T15:03:38;13.90;99.90
21805;DHT22;11064;47.102;15.452;2022-09-16T15:06:12;13.80;99.90
21805;DHT22;11064;47.102;15.452;2022-09-16T15:08:49;13.80;99.90
21805;DHT22;11064;47.102;15.452;2022-09-16T15:11:20;13.80;99.90
21805;DHT22;11064;47.102;15.452;2022-09-16T15:13:47;13.80;99.90
21805;DHT22;11064;47.102;15.452;2022-09-16T15:16:19;13.80;99.90
21805;DHT22;11064;47.102;15.452;2022-09-16T15:18:56;13.70;99.90
21805;DHT22;11064;47.102;15.452;2022-09-16T15:21:29;13.70;99.90
21805;DHT22;11064;47.102;15.452;2022-09-16T15:24:04;13.60;99.90
21805;DHT22;11064;47.102;15.452;2022-09-16T15:31:47;13.30;99.90
21805;DHT22;11064;47.102;15.452;2022-09-16T15:36:52;13.20;99.90
21805;DHT22;11064;47.102;15.452;2022-09-16T15:39:29;13.10;99.90
21805;DHT22;11064;47.102;15.452;2022-09-16T15:42:22;13.00;99.90
21805;DHT22;11064;47.102;15.452;2022-09-16T15:44:56;12.90;99.90
21805;DHT22;11064;47.102;15.452;2022-09-16T15:50:04;12.90;99.90
21805;DHT22;11064;47.102;15.452;2022-09-16T15:57:58;12.80;99.90
21805;DHT22;11064;47.102;15.452;2022-09-16T16:00:24;12.80;99.90
21805;DHT22;11064;47.102;15.452;2022-09-16T16:02:59;12.70;99.90
21805;DHT22;11064;47.102;15.452;2022-09-16T16:05:27;12.70;99.90
21805;DHT22;11064;47.102;15.452;2022-09-16T16:08:01;12.70;99.90
21805;DHT22;11064;47.102;15.452;2022-09-16T16:10:29;12.70;99.90
21805;DHT22;11064;47.102;15.452;2022-09-16T16:12:58;12.70;99.90
21805;DHT22;11064;47.102;15.452;2022-09-16T16:15:34;12.60;99.90
21805;DHT22;11064;47.102;15.452;2022-09-16T16:18:04;12.60;99.90
21805;DHT22;11064;47.102;15.452;2022-09-16T16:20:31;12.50;99.90
21805;DHT22;11064;47.102;15.452;2022-09-16T16:22:59;12.50;99.90
21805;DHT22;11064;47.102;15.452;2022-09-16T16:25:25;12.50;99.90
21805;DHT22;11064;47.102;15.452;2022-09-16T16:27:51;12.50;99.90
21805;DHT22;11064;47.102;15.452;2022-09-16T16:30:17;12.50;99.90
21805;DHT22;11064;47.102;15.452;2022-09-16T16:32:44;12.50;99.90
21805;DHT22;11064;47.102;15.452;2022-09-16T16:35:11;12.50;99.90
21805;DHT22;11064;47.102;15.452;2022-09-16T16:37:37;12.50;99.90
21805;DHT22;11064;47.102;15.452;2022-09-16T16:40:04;12.50;99.90
21805;DHT22;11064;47.102;15.452;2022-09-16T16:42:31;12.50;99.90
21805;DHT22;11064;47.102;15.452;2022-09-16T16:44:56;12.40;99.90
21805;DHT22;11064;47.102;15.452;2022-09-16T16:47:22;12.40;99.90
21805;DHT22;11064;47.102;15.452;2022-09-16T16:49:48;12.40;99.90
21805;DHT22;11064;47.102;15.452;2022-09-16T16:52:15;12.40;99.90
21805;DHT22;11064;47.102;15.452;2022-09-16T16:54:41;12.40;99.90
21805;DHT22;11064;47.102;15.452;2022-09-16T16:57:08;12.40;99.90
21805;DHT22;11064;47.102;15.452;2022-09-16T16:59:34;12.40;99.90
21805;DHT22;11064;47.102;15.452;2022-09-16T17:02:00;12.40;99.90
21805;DHT22;11064;47.102;15.452;2022-09-16T17:04:25;12.30;99.90
21805;DHT22;11064;47.102;15.452;2022-09-16T17:06:52;12.30;99.90
21805;DHT22;11064;47.102;15.452;2022-09-16T17:09:18;12.40;99.90
21805;DHT22;11064;47.102;15.452;2022-09-16T17:11:55;12.40;99.90
21805;DHT22;11064;47.102;15.452;2022-09-16T17:14:23;12.40;99.90
21805;DHT22;11064;47.102;15.452;2022-09-16T17:16:49;12.30;99.90
21805;DHT22;11064;47.102;15.452;2022-09-16T17:19:16;12.30;99.90
21805;DHT22;11064;47.102;15.452;2022-09-16T17:21:44;12.40;99.90
21805;DHT22;11064;47.102;15.452;2022-09-16T17:24:11;12.40;99.90
21805;DHT22;11064;47.102;15.452;2022-09-16T17:26:36;12.40;99.90
21805;DHT22;11064;47.102;15.452;2022-09-16T17:29:03;12.50;99.90
21805;DHT22;11064;47.102;15.452;2022-09-16T17:31:30;12.50;99.90
21805;DHT22;11064;47.102;15.452;2022-09-16T17:33:59;12.50;99.90
21805;DHT22;11064;47.102;15.452;2022-09-16T17:36:28;12.40;99.90
21805;DHT22;11064;47.102;15.452;2022-09-16T17:38:56;12.40;99.90
21805;DHT22;11064;47.102;15.452;2022-09-16T17:41:22;12.50;99.90
21805;DHT22;11064;47.102;15.452;2022-09-16T17:43:49;12.50;99.90
21805;DHT22;11064;47.102;15.452;2022-09-16T17:46:16;12.40;99.90
21805;DHT22;11064;47.102;15.452;2022-09-16T17:48:43;12.50;99.90
21805;DHT22;11064;47.102;15.452;2022-09-16T17:51:10;12.40;99.90
21805;DHT22;11064;47.102;15.452;2022-09-16T17:53:36;12.30;99.90
21805;DHT22;11064;47.102;15.452;2022-09-16T17:56:07;12.30;99.90
21805;DHT22;11064;47.102;15.452;2022-09-16T17:58:34;12.30;99.90
21805;DHT22;11064;47.102;15.452;2022-09-16T18:01:16;12.40;99.90
21805;DHT22;11064;47.102;15.452;2022-09-16T18:03:44;12.30;99.90
21805;DHT22;11064;47.102;15.452;2022-09-16T18:06:18;12.30;99.90
21805;DHT22;11064;47.102;15.452;2022-09-16T18:08:45;12.20;99.90
21805;DHT22;11064;47.102;15.452;2022-09-16T18:11:12;12.20;99.90
21805;DHT22;11064;47.102;15.452;2022-09-16T18:13:39;12.20;99.90
21805;DHT22;11064;47.102;15.452;2022-09-16T18:16:09;12.20;99.90
21805;DHT22;11064;47.102;15.452;2022-09-16T18:18:36;12.10;99.90
21805;DHT22;11064;47.102;15.452;2022-09-16T18:21:03;12.10;99.90
21805;DHT22;11064;47.102;15.452;2022-09-16T18:23:30;12.20;99.90
21805;DHT22;11064;47.102;15.452;2022-09-16T18:25:56;12.20;99.90
21805;DHT22;11064;47.102;15.452;2022-09-16T18:28:22;12.20;99.90
21805;DHT22;11064;47.102;15.452;2022-09-16T18:31:00;12.10;99.90
21805;DHT22;11064;47.102;15.452;2022-09-16T18:33:28;12.10;99.90
21805;DHT22;11064;47.102;15.452;2022-09-16T18:35:58;12.10;99.90
21805;DHT22;11064;47.102;15.452;2022-09-16T18:38:24;12.10;99.90
21805;DHT22;11064;47.102;15.452;2022-09-16T18:40:50;12.20;99.90
21805;DHT22;11064;47.102;15.452;2022-09-16T18:43:17;12.20;99.90
21805;DHT22;11064;47.102;15.452;2022-09-16T18:45:42;12.20;99.90
21805;DHT22;11064;47.102;15.452;2022-09-16T18:48:09;12.10;99.90
21805;DHT22;11064;47.102;15.452;2022-09-16T18:50:34;12.00;99.90
21805;DHT22;11064;47.102;15.452;2022-09-16T18:53:00;12.00;99.90
21805;DHT22;11064;47.102;15.452;2022-09-16T18:55:26;12.00;99.90
21805;DHT22;11064;47.102;15.452;2022-09-16T18:57:52;12.00;99.90
21805;DHT22;11064;47.102;15.452;2022-09-16T19:00:17;11.90;99.90
21805;DHT22;11064;47.102;15.452;2022-09-16T19:02:43;11.90;99.90
21805;DHT22;11064;47.102;15.452;2022-09-16T19:05:09;11.90;99.90
21805;DHT22;11064;47.102;15.452;2022-09-16T19:07:35;12.00;99.90
21805;DHT22;11064;47.102;15.452;2022-09-16T19:10:00;12.00;99.90
21805;DHT22;11064;47.102;15.452;2022-09-16T19:12:26;12.00;99.90
21805;DHT22;11064;47.102;15.452;2022-09-16T19:14:52;12.10;99.90
21805;DHT22;11064;47.102;15.452;2022-09-16T19:17:20;12.00;99.90
21805;DHT22;11064;47.102;15.452;2022-09-16T19:19:47;12.00;99.90
21805;DHT22;11064;47.102;15.452;2022-09-16T19:22:15;12.00;99.90
21805;DHT22;11064;47.102;15.452;2022-09-16T19:24:41;12.00;99.90
21805;DHT22;11064;47.102;15.452;2022-09-16T19:27:08;12.00;99.90
21805;DHT22;11064;47.102;15.452;2022-09-16T19:29:35;12.10;99.90
21805;DHT22;11064;47.102;15.452;2022-09-16T19:32:00;12.00;99.90
21805;DHT22;11064;47.102;15.452;2022-09-16T19:34:26;12.10;99.90
21805;DHT22;11064;47.102;15.452;2022-09-16T19:36:54;12.00;99.90
21805;DHT22;11064;47.102;15.452;2022-09-16T19:39:20;12.10;99.90
21805;DHT22;11064;47.102;15.452;2022-09-16T19:41:46;12.10;99.90
21805;DHT22;11064;47.102;15.452;2022-09-16T19:44:13;12.10;99.90
21805;DHT22;11064;47.102;15.452;2022-09-16T19:46:40;12.10;99.90
21805;DHT22;11064;47.102;15.452;2022-09-16T19:49:19;12.10;99.90
21805;DHT22;11064;47.102;15.452;2022-09-16T19:51:48;12.00;99.90
21805;DHT22;11064;47.102;15.452;2022-09-16T19:54:15;12.10;99.90
21805;DHT22;11064;47.102;15.452;2022-09-16T19:56:41;12.10;99.90
21805;DHT22;11064;47.102;15.452;2022-09-16T19:59:07;12.10;99.90
21805;DHT22;11064;47.102;15.452;2022-09-16T20:01:35;12.10;99.90
21805;DHT22;11064;47.102;15.452;2022-09-16T20:04:02;12.20;99.90
21805;DHT22;11064;47.102;15.452;2022-09-16T20:06:34;12.10;99.90
21805;DHT22;11064;47.102;15.452;2022-09-16T20:09:03;12.10;99.90
21805;DHT22;11064;47.102;15.452;2022-09-16T20:11:31;12.00;99.90
21805;DHT22;11064;47.102;15.452;2022-09-16T20:13:59;12.00;99.90
21805;DHT22;11064;47.102;15.452;2022-09-16T20:16:27;12.00;99.90
21805;DHT22;11064;47.102;15.452;2022-09-16T20:18:55;12.10;99.90
21805;DHT22;11064;47.102;15.452;2022-09-16T20:21:23;12.20;99.90
21805;DHT22;11064;47.102;15.452;2022-09-16T20:23:50;12.00;99.90
21805;DHT22;11064;47.102;15.452;2022-09-16T20:26:17;12.10;99.90
21805;DHT22;11064;47.102;15.452;2022-09-16T20:28:46;12.10;99.90
21805;DHT22;11064;47.102;15.452;2022-09-16T20:31:16;12.10;99.90
21805;DHT22;11064;47.102;15.452;2022-09-16T20:33:43;12.20;99.90
21805;DHT22;11064;47.102;15.452;2022-09-16T20:36:11;12.20;99.90
21805;DHT22;11064;47.102;15.452;2022-09-16T20:38:40;12.20;99.90
21805;DHT22;11064;47.102;15.452;2022-09-16T20:41:11;12.30;99.90
21805;DHT22;11064;47.102;15.452;2022-09-16T20:43:37;12.30;99.90
21805;DHT22;11064;47.102;15.452;2022-09-16T20:46:10;12.30;99.90
21805;DHT22;11064;47.102;15.452;2022-09-16T20:48:37;12.20;99.90
21805;DHT22;11064;47.102;15.452;2022-09-16T20:51:09;12.20;99.90
21805;DHT22;11064;47.102;15.452;2022-09-16T20:53:36;12.20;99.90
21805;DHT22;11064;47.102;15.452;2022-09-16T20:56:20;12.30;99.90
21805;DHT22;11064;47.102;15.452;2022-09-16T20:58:46;12.30;99.90
21805;DHT22;11064;47.102;15.452;2022-09-16T21:01:20;12.30;99.90
21805;DHT22;11064;47.102;15.452;2022-09-16T21:03:51;12.30;99.90
21805;DHT22;11064;47.102;15.452;2022-09-16T21:06:17;12.30;99.90
21805;DHT22;11064;47.102;15.452;2022-09-16T21:08:43;12.30;99.90
21805;DHT22;11064;47.102;15.452;2022-09-16T21:11:14;12.40;99.90
21805;DHT22;11064;47.102;15.452;2022-09-16T21:13:42;12.30;99.90
21805;DHT22;11064;47.102;15.452;2022-09-16T21:16:13;12.30;99.90
21805;DHT22;11064;47.102;15.452;2022-09-16T21:18:40;12.30;99.90
21805;DHT22;11064;47.102;15.452;2022-09-16T21:21:08;12.40;99.90
21805;DHT22;11064;47.102;15.452;2022-09-16T21:23:36;12.30;99.90
21805;DHT22;11064;47.102;15.452;2022-09-16T21:26:04;12.40;99.90
21805;DHT22;11064;47.102;15.452;2022-09-16T21:28:30;12.40;99.90
21805;DHT22;11064;47.102;15.452;2022-09-16T21:31:02;12.40;99.90
21805;DHT22;11064;47.102;15.452;2022-09-16T21:33:33;12.40;99.90
21805;DHT22;11064;47.102;15.452;2022-09-16T21:36:08;12.40;99.90
21805;DHT22;11064;47.102;15.452;2022-09-16T21:38:36;12.40;99.90
21805;DHT22;11064;47.102;15.452;2022-09-16T21:41:09;12.30;99.90